sensor_id;sensor_type;location;lat;lon;timestamp;pressure;altitude;pressure_sealevel;temperature;humidity
21988;BME280;11158;53.404;-1.510;2023-05-21T00:02:37;101499.59;;;13.45;52.00
21988;BME280;11158;53.404;-1.510;2023-05-21T00:05:22;101498.53;;;13.54;51.76
21988;BME280;11158;53.404;-1.510;2023-05-21T00:08:07;101497.00;;;13.20;52.35
21988;BME280;11158;53.404;-1.510;2023-05-21T00:10:51;101502.53;;;13.18;52.50
21988;BME280;11158;53.404;-1.510;2023-05-21T00:13:35;101503.03;;;12.66;53.69
21988;BME280;11158;53.404;-1.510;2023-05-21T00:16:19;101503.34;;;12.79;53.57
21988;BME280;11158;53.404;-1.510;2023-05-21T00:19:04;101506.63;;;13.06;52.44
21988;BME280;11158;53.404;-1.510;2023-05-21T00:21:49;101502.31;;;13.36;51.63
21988;BME280;11158;53.404;-1.510;2023-05-21T00:24:33;101496.19;;;13.11;52.41
21988;BME280;11158;53.404;-1.510;2023-05-21T00:27:17;101503.69;;;13.24;51.86
21988;BME280;11158;53.404;-1.510;2023-05-21T00:30:02;101498.44;;;13.39;51.52
21988;BME280;11158;53.404;-1.510;2023-05-21T00:32:47;101508.56;;;13.20;52.04
21988;BME280;11158;53.404;-1.510;2023-05-21T00:35:31;101507.22;;;13.25;52.13
21988;BME280;11158;53.404;-1.510;2023-05-21T00:38:15;101505.78;;;13.06;52.75
21988;BME280;11158;53.404;-1.510;2023-05-21T00:41:03;101502.59;;;13.02;52.68
21988;BME280;11158;53.404;-1.510;2023-05-21T00:43:47;101498.25;;;13.01;52.87
21988;BME280;11158;53.404;-1.510;2023-05-21T00:46:31;101498.72;;;13.13;52.42
21988;BME280;11158;53.404;-1.510;2023-05-21T00:49:15;101505.28;;;13.02;52.84
21988;BME280;11158;53.404;-1.510;2023-05-21T00:52:00;101511.69;;;12.93;52.76
21988;BME280;11158;53.404;-1.510;2023-05-21T00:54:45;101506.22;;;12.62;53.53
21988;BME280;11158;53.404;-1.510;2023-05-21T00:57:34;101509.53;;;12.80;52.99
21988;BME280;11158;53.404;-1.510;2023-05-21T01:00:20;101505.69;;;12.83;52.86
21988;BME280;11158;53.404;-1.510;2023-05-21T01:03:16;101495.56;;;13.01;52.07
21988;BME280;11158;53.404;-1.510;2023-05-21T01:06:01;101502.00;;;12.92;52.69
21988;BME280;11158;53.404;-1.510;2023-05-21T01:08:47;101493.66;;;13.18;51.99
21988;BME280;11158;53.404;-1.510;2023-05-21T01:14:18;101493.94;;;12.84;53.14
21988;BME280;11158;53.404;-1.510;2023-05-21T01:17:04;101491.22;;;13.00;52.40
21988;BME280;11158;53.404;-1.510;2023-05-21T01:19:50;101491.63;;;12.64;53.38
21988;BME280;11158;53.404;-1.510;2023-05-21T01:22:39;101501.47;;;12.88;52.82
21988;BME280;11158;53.404;-1.510;2023-05-21T01:25:25;101498.50;;;12.75;52.93
21988;BME280;11158;53.404;-1.510;2023-05-21T01:28:09;101502.63;;;12.94;52.41
21988;BME280;11158;53.404;-1.510;2023-05-21T01:30:55;101491.63;;;13.20;51.50
21988;BME280;11158;53.404;-1.510;2023-05-21T01:33:47;101496.28;;;13.26;51.55
21988;BME280;11158;53.404;-1.510;2023-05-21T01:36:36;101484.88;;;12.93;52.18
21988;BME280;11158;53.404;-1.510;2023-05-21T01:39:32;101484.25;;;12.66;52.77
21988;BME280;11158;53.404;-1.510;2023-05-21T01:42:21;101488.13;;;13.11;52.01
21988;BME280;11158;53.404;-1.510;2023-05-21T01:45:07;101486.13;;;13.13;51.97
21988;BME280;11158;53.404;-1.510;2023-05-21T01:47:53;101483.00;;;13.02;52.22
21988;BME280;11158;53.404;-1.510;2023-05-21T01:50:39;101486.63;;;12.69;52.99
21988;BME280;11158;53.404;-1.510;2023-05-21T01:53:24;101490.91;;;12.87;52.71
21988;BME280;11158;53.404;-1.510;2023-05-21T01:56:08;101474.94;;;12.38;53.96
21988;BME280;11158;53.404;-1.510;2023-05-21T01:58:58;101482.59;;;12.65;53.51
21988;BME280;11158;53.404;-1.510;2023-05-21T02:01:42;101473.56;;;12.50;53.87
21988;BME280;11158;53.404;-1.510;2023-05-21T02:04:27;101472.41;;;13.08;52.37
21988;BME280;11158;53.404;-1.510;2023-05-21T02:07:11;101471.06;;;13.44;51.38
21988;BME280;11158;53.404;-1.510;2023-05-21T02:09:57;101464.25;;;13.25;51.58
21988;BME280;11158;53.404;-1.510;2023-05-21T02:12:41;101463.22;;;13.34;51.11
21988;BME280;11158;53.404;-1.510;2023-05-21T02:15:26;101465.91;;;13.34;51.36
21988;BME280;11158;53.404;-1.510;2023-05-21T02:18:10;101454.25;;;13.50;50.84
21988;BME280;11158;53.404;-1.510;2023-05-21T02:20:54;101462.09;;;13.51;50.94
21988;BME280;11158;53.404;-1.510;2023-05-21T02:23:38;101456.66;;;13.68;50.33
21988;BME280;11158;53.404;-1.510;2023-05-21T02:26:22;101456.53;;;13.21;51.54
21988;BME280;11158;53.404;-1.510;2023-05-21T02:29:06;101456.00;;;12.95;52.50
21988;BME280;11158;53.404;-1.510;2023-05-21T02:31:50;101448.72;;;12.72;53.15
21988;BME280;11158;53.404;-1.510;2023-05-21T02:34:34;101450.94;;;12.52;53.72
21988;BME280;11158;53.404;-1.510;2023-05-21T02:37:20;101450.66;;;12.31;54.85
21988;BME280;11158;53.404;-1.510;2023-05-21T02:40:06;101451.53;;;12.15;55.14
21988;BME280;11158;53.404;-1.510;2023-05-21T02:42:50;101452.34;;;12.15;55.27
21988;BME280;11158;53.404;-1.510;2023-05-21T02:45:34;101451.47;;;12.48;54.19
21988;BME280;11158;53.404;-1.510;2023-05-21T02:48:19;101452.19;;;13.20;52.53
21988;BME280;11158;53.404;-1.510;2023-05-21T02:51:03;101450.28;;;12.98;52.66
21988;BME280;11158;53.404;-1.510;2023-05-21T02:53:47;101453.78;;;12.98;53.11
21988;BME280;11158;53.404;-1.510;2023-05-21T02:56:31;101448.94;;;13.02;52.94
21988;BME280;11158;53.404;-1.510;2023-05-21T02:59:15;101444.31;;;12.79;53.38
21988;BME280;11158;53.404;-1.510;2023-05-21T03:01:59;101441.81;;;12.78;53.73
21988;BME280;11158;53.404;-1.510;2023-05-21T03:04:43;101442.16;;;12.75;53.72
21988;BME280;11158;53.404;-1.510;2023-05-21T03:07:30;101434.69;;;12.46;54.29
21988;BME280;11158;53.404;-1.510;2023-05-21T03:10:14;101439.38;;;12.52;54.20
21988;BME280;11158;53.404;-1.510;2023-05-21T03:12:58;101443.59;;;12.38;54.57
21988;BME280;11158;53.404;-1.510;2023-05-21T03:15:43;101438.56;;;12.91;53.36
21988;BME280;11158;53.404;-1.510;2023-05-21T03:18:29;101441.75;;;13.26;52.44
21988;BME280;11158;53.404;-1.510;2023-05-21T03:21:14;101436.97;;;13.13;52.42
21988;BME280;11158;53.404;-1.510;2023-05-21T03:23:59;101431.06;;;13.49;51.32
21988;BME280;11158;53.404;-1.510;2023-05-21T03:26:43;101425.56;;;13.65;51.03
21988;BME280;11158;53.404;-1.510;2023-05-21T03:29:27;101424.41;;;13.45;51.17
21988;BME280;11158;53.404;-1.510;2023-05-21T03:32:11;101422.94;;;13.34;51.61
21988;BME280;11158;53.404;-1.510;2023-05-21T03:34:56;101421.50;;;12.84;52.88
21988;BME280;11158;53.404;-1.510;2023-05-21T03:37:40;101415.75;;;12.47;54.05
21988;BME280;11158;53.404;-1.510;2023-05-21T03:40:24;101416.31;;;12.18;54.98
21988;BME280;11158;53.404;-1.510;2023-05-21T03:43:08;101416.53;;;12.64;54.26
21988;BME280;11158;53.404;-1.510;2023-05-21T03:45:53;101420.47;;;12.85;53.50
21988;BME280;11158;53.404;-1.510;2023-05-21T03:48:37;101415.00;;;13.09;52.68
21988;BME280;11158;53.404;-1.510;2023-05-21T03:51:21;101411.44;;;13.48;51.88
21988;BME280;11158;53.404;-1.510;2023-05-21T03:54:05;101417.34;;;13.44;51.78
21988;BME280;11158;53.404;-1.510;2023-05-21T03:56:49;101421.63;;;13.30;52.07
21988;BME280;11158;53.404;-1.510;2023-05-21T03:59:33;101413.88;;;13.04;52.66
21988;BME280;11158;53.404;-1.510;2023-05-21T04:02:17;101420.63;;;12.91;53.59
21988;BME280;11158;53.404;-1.510;2023-05-21T04:05:01;101421.38;;;12.69;54.01
21988;BME280;11158;53.404;-1.510;2023-05-21T04:07:46;101425.50;;;12.40;54.22
21988;BME280;11158;53.404;-1.510;2023-05-21T04:10:30;101421.69;;;12.26;55.17
21988;BME280;11158;53.404;-1.510;2023-05-21T04:13:14;101432.09;;;12.13;55.48
21988;BME280;11158;53.404;-1.510;2023-05-21T04:15:58;101425.50;;;12.32;55.02
21988;BME280;11158;53.404;-1.510;2023-05-21T04:18:42;101430.06;;;12.07;55.62
21988;BME280;11158;53.404;-1.510;2023-05-21T04:21:26;101420.00;;;12.33;54.93
21988;BME280;11158;53.404;-1.510;2023-05-21T04:24:10;101418.66;;;12.38;54.93
21988;BME280;11158;53.404;-1.510;2023-05-21T04:26:55;101417.41;;;12.56;54.34
21988;BME280;11158;53.404;-1.510;2023-05-21T04:29:40;101418.97;;;12.43;54.85
21988;BME280;11158;53.404;-1.510;2023-05-21T04:32:25;101415.44;;;12.90;53.68
21988;BME280;11158;53.404;-1.510;2023-05-21T04:35:11;101422.75;;;12.65;53.92
21988;BME280;11158;53.404;-1.510;2023-05-21T04:37:55;101415.91;;;13.02;53.16
21988;BME280;11158;53.404;-1.510;2023-05-21T04:40:39;101410.25;;;13.51;51.78
21988;BME280;11158;53.404;-1.510;2023-05-21T04:43:23;101414.41;;;12.99;52.65
21988;BME280;11158;53.404;-1.510;2023-05-21T04:46:11;101411.34;;;13.02;52.70
21988;BME280;11158;53.404;-1.510;2023-05-21T04:48:55;101407.50;;;12.65;53.99
21988;BME280;11158;53.404;-1.510;2023-05-21T04:51:39;101413.16;;;13.10;52.98
21988;BME280;11158;53.404;-1.510;2023-05-21T04:54:24;101409.28;;;13.67;51.67
21988;BME280;11158;53.404;-1.510;2023-05-21T04:57:08;101404.81;;;13.97;50.64
21988;BME280;11158;53.404;-1.510;2023-05-21T04:59:54;101410.53;;;14.91;48.76
21988;BME280;11158;53.404;-1.510;2023-05-21T05:02:40;101403.13;;;14.78;48.34
21988;BME280;11158;53.404;-1.510;2023-05-21T05:05:24;101391.56;;;16.35;45.29
21988;BME280;11158;53.404;-1.510;2023-05-21T05:08:09;101399.97;;;18.03;41.35
21988;BME280;11158;53.404;-1.510;2023-05-21T05:10:53;101385.03;;;19.49;38.31
21988;BME280;11158;53.404;-1.510;2023-05-21T05:13:39;101381.69;;;21.45;34.94
21988;BME280;11158;53.404;-1.510;2023-05-21T05:16:24;101379.28;;;22.26;32.98
21988;BME280;11158;53.404;-1.510;2023-05-21T05:19:09;101371.84;;;21.44;33.89
21988;BME280;11158;53.404;-1.510;2023-05-21T05:21:53;101383.38;;;20.23;35.39
21988;BME280;11158;53.404;-1.510;2023-05-21T05:24:37;101391.34;;;19.04;37.12
21988;BME280;11158;53.404;-1.510;2023-05-21T05:27:21;101395.56;;;17.49;40.23
21988;BME280;11158;53.404;-1.510;2023-05-21T05:30:05;101398.38;;;17.07;41.39
21988;BME280;11158;53.404;-1.510;2023-05-21T05:32:50;101396.25;;;16.96;41.29
21988;BME280;11158;53.404;-1.510;2023-05-21T05:35:34;101404.22;;;16.34;43.33
21988;BME280;11158;53.404;-1.510;2023-05-21T05:38:19;101395.88;;;16.64;42.83
21988;BME280;11158;53.404;-1.510;2023-05-21T05:41:03;101391.31;;;16.65;42.80
21988;BME280;11158;53.404;-1.510;2023-05-21T05:43:47;101394.75;;;16.87;42.28
21988;BME280;11158;53.404;-1.510;2023-05-21T05:46:31;101394.00;;;17.00;42.21
21988;BME280;11158;53.404;-1.510;2023-05-21T05:49:15;101389.09;;;17.36;41.51
21988;BME280;11158;53.404;-1.510;2023-05-21T05:51:59;101391.16;;;17.34;41.30
21988;BME280;11158;53.404;-1.510;2023-05-21T05:54:44;101388.69;;;17.79;40.65
21988;BME280;11158;53.404;-1.510;2023-05-21T05:57:28;101386.53;;;18.48;39.58
21988;BME280;11158;53.404;-1.510;2023-05-21T06:00:13;101390.88;;;19.14;38.25
21988;BME280;11158;53.404;-1.510;2023-05-21T06:02:57;101394.53;;;20.34;35.94
21988;BME280;11158;53.404;-1.510;2023-05-21T06:05:41;101397.72;;;20.86;34.78
21988;BME280;11158;53.404;-1.510;2023-05-21T06:08:25;101397.34;;;21.96;33.45
21988;BME280;11158;53.404;-1.510;2023-05-21T06:11:09;101390.63;;;22.87;31.38
21988;BME280;11158;53.404;-1.510;2023-05-21T06:13:54;101383.88;;;23.97;29.63
21988;BME280;11158;53.404;-1.510;2023-05-21T06:16:38;101386.88;;;24.35;28.86
21988;BME280;11158;53.404;-1.510;2023-05-21T06:19:22;101382.28;;;25.61;26.77
21988;BME280;11158;53.404;-1.510;2023-05-21T06:22:07;101374.66;;;27.93;23.65
21988;BME280;11158;53.404;-1.510;2023-05-21T06:24:51;101380.72;;;27.85;23.97
21988;BME280;11158;53.404;-1.510;2023-05-21T06:27:36;101381.47;;;28.86;21.93
21988;BME280;11158;53.404;-1.510;2023-05-21T06:30:21;101383.81;;;29.13;21.99
21988;BME280;11158;53.404;-1.510;2023-05-21T06:33:05;101384.38;;;29.84;21.14
21988;BME280;11158;53.404;-1.510;2023-05-21T06:35:49;101382.63;;;29.93;21.31
21988;BME280;11158;53.404;-1.510;2023-05-21T06:38:33;101375.66;;;31.82;19.44
21988;BME280;11158;53.404;-1.510;2023-05-21T06:41:17;101377.16;;;32.48;18.49
21988;BME280;11158;53.404;-1.510;2023-05-21T06:44:02;101375.88;;;33.86;17.17
21988;BME280;11158;53.404;-1.510;2023-05-21T06:46:46;101364.13;;;34.87;15.68
21988;BME280;11158;53.404;-1.510;2023-05-21T06:49:31;101378.06;;;33.22;17.63
21988;BME280;11158;53.404;-1.510;2023-05-21T06:52:15;101376.34;;;34.19;16.73
21988;BME280;11158;53.404;-1.510;2023-05-21T06:54:59;101377.19;;;34.69;15.89
21988;BME280;11158;53.404;-1.510;2023-05-21T06:57:44;101372.19;;;33.99;16.76
21988;BME280;11158;53.404;-1.510;2023-05-21T07:00:28;101379.13;;;34.77;15.93
21988;BME280;11158;53.404;-1.510;2023-05-21T07:03:13;101374.06;;;34.13;16.30
21988;BME280;11158;53.404;-1.510;2023-05-21T07:05:57;101372.91;;;33.83;16.45
21988;BME280;11158;53.404;-1.510;2023-05-21T07:08:42;101372.44;;;35.04;15.38
21988;BME280;11158;53.404;-1.510;2023-05-21T07:11:26;101375.41;;;35.25;14.39
21988;BME280;11158;53.404;-1.510;2023-05-21T07:14:11;101382.78;;;32.29;16.95
21988;BME280;11158;53.404;-1.510;2023-05-21T07:16:55;101385.19;;;31.05;17.92
21988;BME280;11158;53.404;-1.510;2023-05-21T07:19:40;101389.88;;;31.42;18.40
21988;BME280;11158;53.404;-1.510;2023-05-21T07:22:24;101374.00;;;33.28;16.11
21988;BME280;11158;53.404;-1.510;2023-05-21T07:25:08;101379.56;;;31.94;18.31
21988;BME280;11158;53.404;-1.510;2023-05-21T07:27:53;101385.00;;;31.53;18.58
21988;BME280;11158;53.404;-1.510;2023-05-21T07:30:37;101378.97;;;30.94;19.03
21988;BME280;11158;53.404;-1.510;2023-05-21T07:33:21;101397.72;;;27.92;21.75
21988;BME280;11158;53.404;-1.510;2023-05-21T07:36:05;101394.53;;;28.65;21.42
21988;BME280;11158;53.404;-1.510;2023-05-21T07:38:50;101385.72;;;29.18;20.19
21988;BME280;11158;53.404;-1.510;2023-05-21T07:41:34;101393.28;;;28.92;19.59
21988;BME280;11158;53.404;-1.510;2023-05-21T07:44:18;101405.00;;;25.29;24.63
21988;BME280;11158;53.404;-1.510;2023-05-21T07:47:02;101406.00;;;25.50;23.68
21988;BME280;11158;53.404;-1.510;2023-05-21T07:49:46;101412.03;;;22.66;27.79
21988;BME280;11158;53.404;-1.510;2023-05-21T07:52:30;101422.03;;;20.81;31.22
21988;BME280;11158;53.404;-1.510;2023-05-21T07:55:14;101427.56;;;18.52;34.11
21988;BME280;11158;53.404;-1.510;2023-05-21T07:57:59;101414.31;;;18.04;35.17
21988;BME280;11158;53.404;-1.510;2023-05-21T08:00:45;101421.41;;;17.85;34.04
21988;BME280;11158;53.404;-1.510;2023-05-21T08:03:30;101426.88;;;16.75;36.61
21988;BME280;11158;53.404;-1.510;2023-05-21T08:06:14;101427.88;;;16.74;37.46
21988;BME280;11158;53.404;-1.510;2023-05-21T08:09:02;101424.31;;;17.02;36.39
21988;BME280;11158;53.404;-1.510;2023-05-21T08:11:46;101424.47;;;16.87;36.86
21988;BME280;11158;53.404;-1.510;2023-05-21T08:14:30;101417.59;;;17.66;36.00
21988;BME280;11158;53.404;-1.510;2023-05-21T08:17:14;101421.84;;;17.07;36.91
21988;BME280;11158;53.404;-1.510;2023-05-21T08:19:59;101416.59;;;18.07;33.89
21988;BME280;11158;53.404;-1.510;2023-05-21T08:22:43;101413.50;;;18.16;34.05
21988;BME280;11158;53.404;-1.510;2023-05-21T08:25:27;101419.84;;;16.81;36.15
21988;BME280;11158;53.404;-1.510;2023-05-21T08:28:11;101419.06;;;17.62;34.70
21988;BME280;11158;53.404;-1.510;2023-05-21T08:30:55;101420.06;;;18.60;33.00
21988;BME280;11158;53.404;-1.510;2023-05-21T08:33:49;101424.50;;;17.95;34.62
21988;BME280;11158;53.404;-1.510;2023-05-21T08:36:34;101424.72;;;16.99;35.05
21988;BME280;11158;53.404;-1.510;2023-05-21T08:39:19;101412.38;;;17.37;34.86
21988;BME280;11158;53.404;-1.510;2023-05-21T08:42:10;101415.66;;;17.26;35.81
21988;BME280;11158;53.404;-1.510;2023-05-21T08:44:58;101416.53;;;17.40;32.91
21988;BME280;11158;53.404;-1.510;2023-05-21T08:47:43;101417.25;;;16.59;33.42
21988;BME280;11158;53.404;-1.510;2023-05-21T08:50:28;101420.91;;;16.45;33.73
21988;BME280;11158;53.404;-1.510;2023-05-21T08:53:14;101414.78;;;17.06;32.72
21988;BME280;11158;53.404;-1.510;2023-05-21T08:55:58;101409.53;;;16.91;32.90
21988;BME280;11158;53.404;-1.510;2023-05-21T08:58:45;101412.09;;;16.71;33.62
21988;BME280;11158;53.404;-1.510;2023-05-21T09:01:31;101418.75;;;16.68;33.71
21988;BME280;11158;53.404;-1.510;2023-05-21T09:04:16;101414.28;;;16.82;33.51
21988;BME280;11158;53.404;-1.510;2023-05-21T09:07:00;101415.91;;;16.83;34.72
21988;BME280;11158;53.404;-1.510;2023-05-21T09:09:55;101411.56;;;17.44;34.18
21988;BME280;11158;53.404;-1.510;2023-05-21T09:12:43;101405.53;;;17.68;32.73
21988;BME280;11158;53.404;-1.510;2023-05-21T09:15:27;101396.59;;;17.54;33.88
21988;BME280;11158;53.404;-1.510;2023-05-21T09:18:12;101403.69;;;18.29;32.76
21988;BME280;11158;53.404;-1.510;2023-05-21T09:20:58;101398.94;;;18.76;30.92
21988;BME280;11158;53.404;-1.510;2023-05-21T09:23:56;101397.19;;;18.43;31.71
21988;BME280;11158;53.404;-1.510;2023-05-21T09:26:42;101387.28;;;18.82;31.83
21988;BME280;11158;53.404;-1.510;2023-05-21T09:29:26;101402.41;;;18.45;32.52
21988;BME280;11158;53.404;-1.510;2023-05-21T09:32:10;101391.22;;;18.14;33.19
21988;BME280;11158;53.404;-1.510;2023-05-21T09:34:55;101396.19;;;17.64;33.71
21988;BME280;11158;53.404;-1.510;2023-05-21T09:37:40;101395.78;;;18.99;31.87
21988;BME280;11158;53.404;-1.510;2023-05-21T09:40:26;101395.94;;;18.46;33.60
21988;BME280;11158;53.404;-1.510;2023-05-21T09:43:13;101390.56;;;18.26;33.96
21988;BME280;11158;53.404;-1.510;2023-05-21T09:45:58;101388.75;;;18.84;33.39
21988;BME280;11158;53.404;-1.510;2023-05-21T09:48:43;101385.56;;;18.94;33.20
21988;BME280;11158;53.404;-1.510;2023-05-21T09:51:27;101384.53;;;18.95;32.61
21988;BME280;11158;53.404;-1.510;2023-05-21T09:54:12;101385.75;;;18.99;32.88
21988;BME280;11158;53.404;-1.510;2023-05-21T09:56:56;101388.69;;;17.79;34.89
21988;BME280;11158;53.404;-1.510;2023-05-21T09:59:40;101381.66;;;17.85;36.49
21988;BME280;11158;53.404;-1.510;2023-05-21T10:02:24;101389.72;;;19.03;34.47
21988;BME280;11158;53.404;-1.510;2023-05-21T10:05:13;101383.34;;;19.23;34.33
21988;BME280;11158;53.404;-1.510;2023-05-21T10:08:02;101367.84;;;19.30;33.06
21988;BME280;11158;53.404;-1.510;2023-05-21T10:10:48;101374.63;;;19.14;33.91
21988;BME280;11158;53.404;-1.510;2023-05-21T10:13:37;101364.31;;;19.30;33.46
21988;BME280;11158;53.404;-1.510;2023-05-21T10:16:23;101362.91;;;19.84;29.03
21988;BME280;11158;53.404;-1.510;2023-05-21T10:19:08;101364.44;;;18.65;33.20
21988;BME280;11158;53.404;-1.510;2023-05-21T10:21:55;101363.59;;;18.64;34.82
21988;BME280;11158;53.404;-1.510;2023-05-21T10:24:41;101370.41;;;18.87;32.11
21988;BME280;11158;53.404;-1.510;2023-05-21T10:27:26;101361.09;;;18.62;31.02
21988;BME280;11158;53.404;-1.510;2023-05-21T10:30:13;101360.69;;;19.11;31.46
21988;BME280;11158;53.404;-1.510;2023-05-21T10:32:57;101365.34;;;18.32;32.76
21988;BME280;11158;53.404;-1.510;2023-05-21T10:35:43;101363.13;;;17.95;30.71
21988;BME280;11158;53.404;-1.510;2023-05-21T10:38:30;101360.41;;;18.80;30.59
21988;BME280;11158;53.404;-1.510;2023-05-21T10:41:17;101369.53;;;18.28;32.47
21988;BME280;11158;53.404;-1.510;2023-05-21T10:47:22;101358.41;;;18.62;31.28
21988;BME280;11158;53.404;-1.510;2023-05-21T10:59:55;101350.97;;;18.96;30.39
21988;BME280;11158;53.404;-1.510;2023-05-21T11:02:41;101349.56;;;19.51;30.94
21988;BME280;11158;53.404;-1.510;2023-05-21T11:05:51;101346.53;;;19.40;29.28
21988;BME280;11158;53.404;-1.510;2023-05-21T11:08:37;101348.75;;;18.80;31.14
21988;BME280;11158;53.404;-1.510;2023-05-21T11:11:41;101343.78;;;19.15;30.74
21988;BME280;11158;53.404;-1.510;2023-05-21T11:14:37;101339.34;;;19.21;31.75
21988;BME280;11158;53.404;-1.510;2023-05-21T11:17:37;101336.50;;;20.35;30.41
21988;BME280;11158;53.404;-1.510;2023-05-21T11:20:32;101329.66;;;19.88;31.85
21988;BME280;11158;53.404;-1.510;2023-05-21T11:23:19;101336.50;;;18.64;32.39
21988;BME280;11158;53.404;-1.510;2023-05-21T11:26:05;101334.13;;;18.36;30.56
21988;BME280;11158;53.404;-1.510;2023-05-21T11:29:10;101340.91;;;18.58;31.09
21988;BME280;11158;53.404;-1.510;2023-05-21T11:32:00;101334.31;;;19.56;30.98
21988;BME280;11158;53.404;-1.510;2023-05-21T11:34:46;101322.16;;;20.09;27.43
21988;BME280;11158;53.404;-1.510;2023-05-21T11:37:33;101325.69;;;20.65;27.63
21988;BME280;11158;53.404;-1.510;2023-05-21T11:40:21;101320.75;;;19.56;30.55
21988;BME280;11158;53.404;-1.510;2023-05-21T11:43:06;101317.47;;;19.98;31.22
21988;BME280;11158;53.404;-1.510;2023-05-21T11:45:51;101323.94;;;19.46;32.84
21988;BME280;11158;53.404;-1.510;2023-05-21T11:48:36;101323.56;;;19.68;32.36
21988;BME280;11158;53.404;-1.510;2023-05-21T11:51:21;101319.94;;;19.99;32.19
21988;BME280;11158;53.404;-1.510;2023-05-21T11:54:08;101313.00;;;21.07;30.11
21988;BME280;11158;53.404;-1.510;2023-05-21T11:56:53;101320.56;;;20.57;30.99
21988;BME280;11158;53.404;-1.510;2023-05-21T11:59:38;101325.31;;;20.06;32.10
21988;BME280;11158;53.404;-1.510;2023-05-21T12:02:24;101314.88;;;20.77;30.12
21988;BME280;11158;53.404;-1.510;2023-05-21T12:05:08;101328.09;;;19.49;33.27
21988;BME280;11158;53.404;-1.510;2023-05-21T12:07:53;101322.00;;;21.20;29.95
21988;BME280;11158;53.404;-1.510;2023-05-21T12:10:38;101317.41;;;20.90;30.89
21988;BME280;11158;53.404;-1.510;2023-05-21T12:13:23;101310.97;;;21.03;31.95
21988;BME280;11158;53.404;-1.510;2023-05-21T12:16:09;101309.16;;;20.11;31.92
21988;BME280;11158;53.404;-1.510;2023-05-21T12:18:53;101321.06;;;19.41;33.70
21988;BME280;11158;53.404;-1.510;2023-05-21T12:21:37;101312.06;;;20.83;31.61
21988;BME280;11158;53.404;-1.510;2023-05-21T12:24:32;101314.97;;;19.96;33.36
21988;BME280;11158;53.404;-1.510;2023-05-21T12:27:16;101313.34;;;19.45;34.52
21988;BME280;11158;53.404;-1.510;2023-05-21T12:30:01;101312.41;;;19.26;33.86
21988;BME280;11158;53.404;-1.510;2023-05-21T12:32:47;101306.91;;;19.39;32.93
21988;BME280;11158;53.404;-1.510;2023-05-21T12:35:31;101313.16;;;19.40;32.51
21988;BME280;11158;53.404;-1.510;2023-05-21T12:38:16;101298.94;;;21.10;29.16
21988;BME280;11158;53.404;-1.510;2023-05-21T12:41:04;101303.00;;;20.04;30.45
21988;BME280;11158;53.404;-1.510;2023-05-21T12:43:49;101303.00;;;20.89;30.10
21988;BME280;11158;53.404;-1.510;2023-05-21T12:46:34;101297.41;;;19.80;30.57
21988;BME280;11158;53.404;-1.510;2023-05-21T12:49:42;101300.03;;;20.91;28.12
21988;BME280;11158;53.404;-1.510;2023-05-21T12:52:28;101294.53;;;21.51;27.24
21988;BME280;11158;53.404;-1.510;2023-05-21T12:55:13;101303.38;;;19.89;30.17
21988;BME280;11158;53.404;-1.510;2023-05-21T12:58:04;101302.25;;;20.15;30.18
21988;BME280;11158;53.404;-1.510;2023-05-21T13:00:54;101289.81;;;21.05;28.92
21988;BME280;11158;53.404;-1.510;2023-05-21T13:03:42;101286.84;;;21.48;28.84
21988;BME280;11158;53.404;-1.510;2023-05-21T13:06:27;101287.56;;;21.67;28.77
21988;BME280;11158;53.404;-1.510;2023-05-21T13:09:11;101283.31;;;21.06;28.97
21988;BME280;11158;53.404;-1.510;2023-05-21T13:11:55;101288.22;;;20.00;30.33
21988;BME280;11158;53.404;-1.510;2023-05-21T13:14:39;101290.59;;;20.63;29.41
21988;BME280;11158;53.404;-1.510;2023-05-21T13:17:25;101278.47;;;21.85;26.64
21988;BME280;11158;53.404;-1.510;2023-05-21T13:20:13;101284.97;;;20.65;28.95
21988;BME280;11158;53.404;-1.510;2023-05-21T13:22:58;101274.38;;;21.17;28.02
21988;BME280;11158;53.404;-1.510;2023-05-21T13:25:42;101284.75;;;20.29;29.40
21988;BME280;11158;53.404;-1.510;2023-05-21T13:28:29;101287.31;;;20.24;29.27
21988;BME280;11158;53.404;-1.510;2023-05-21T13:31:13;101295.00;;;19.91;30.00
21988;BME280;11158;53.404;-1.510;2023-05-21T13:33:58;101287.56;;;20.04;29.70
21988;BME280;11158;53.404;-1.510;2023-05-21T13:36:43;101286.69;;;20.78;28.83
21988;BME280;11158;53.404;-1.510;2023-05-21T13:39:27;101275.25;;;20.39;28.80
21988;BME280;11158;53.404;-1.510;2023-05-21T13:42:11;101274.09;;;21.07;28.03
21988;BME280;11158;53.404;-1.510;2023-05-21T13:44:56;101283.78;;;20.24;28.73
21988;BME280;11158;53.404;-1.510;2023-05-21T13:47:41;101288.81;;;20.39;29.95
21988;BME280;11158;53.404;-1.510;2023-05-21T13:50:26;101272.00;;;20.79;28.85
21988;BME280;11158;53.404;-1.510;2023-05-21T13:53:10;101266.63;;;20.90;29.02
21988;BME280;11158;53.404;-1.510;2023-05-21T13:55:54;101264.97;;;21.55;27.91
21988;BME280;11158;53.404;-1.510;2023-05-21T13:58:38;101273.75;;;20.06;29.93
21988;BME280;11158;53.404;-1.510;2023-05-21T14:01:23;101259.41;;;21.85;27.35
21988;BME280;11158;53.404;-1.510;2023-05-21T14:04:07;101256.25;;;22.17;28.00
21988;BME280;11158;53.404;-1.510;2023-05-21T14:06:51;101264.44;;;21.23;29.52
21988;BME280;11158;53.404;-1.510;2023-05-21T14:09:36;101264.88;;;20.66;30.55
21988;BME280;11158;53.404;-1.510;2023-05-21T14:12:20;101266.81;;;20.28;31.11
21988;BME280;11158;53.404;-1.510;2023-05-21T14:15:05;101268.75;;;20.58;31.00
21988;BME280;11158;53.404;-1.510;2023-05-21T14:17:50;101263.78;;;20.85;30.54
21988;BME280;11158;53.404;-1.510;2023-05-21T14:20:35;101260.69;;;21.71;29.64
21988;BME280;11158;53.404;-1.510;2023-05-21T14:23:20;101252.56;;;23.43;27.70
21988;BME280;11158;53.404;-1.510;2023-05-21T14:26:04;101247.78;;;22.02;28.95
21988;BME280;11158;53.404;-1.510;2023-05-21T14:28:48;101245.47;;;21.58;29.73
21988;BME280;11158;53.404;-1.510;2023-05-21T14:31:33;101235.41;;;22.34;28.83